createdAt,value
2017-02-13T00:00:27.331Z,91.06
2017-02-13T00:01:27.350Z,91.35
2017-02-13T00:02:27.348Z,91.35
2017-02-13T00:03:27.678Z,91.16
2017-02-13T00:05:27.386Z,91.82
2017-02-13T00:06:27.392Z,91.72
2017-02-13T00:07:27.417Z,91.63
2017-02-13T00:08:41.933Z,91.82
2017-02-13T00:10:27.441Z,91.53
2017-02-13T00:11:27.452Z,91.91
2017-02-13T00:12:27.470Z,92.19
2017-02-13T00:13:27.478Z,91.91
2017-02-13T00:14:27.491Z,92.29
2017-02-13T00:15:27.506Z,92.19
2017-02-13T00:16:27.530Z,92.19
2017-02-13T00:17:27.532Z,91.91
2017-02-13T00:18:27.536Z,91.72
2017-02-13T00:19:27.540Z,92.1
2017-02-13T00:20:27.628Z,92.1
2017-02-13T00:21:27.623Z,92.29
2017-02-13T00:22:27.577Z,92.47
2017-02-13T00:23:27.591Z,92.29
2017-02-13T00:24:42.115Z,92.1
2017-02-13T00:25:27.621Z,92.19
2017-02-13T00:26:28.477Z,92.38
2017-02-13T00:27:27.645Z,92.19
2017-02-13T00:28:27.656Z,92.1
2017-02-13T00:29:27.661Z,92.76
2017-02-13T00:30:27.668Z,92.95
2017-02-13T00:31:27.688Z,92.76
2017-02-13T00:32:27.698Z,92.57
2017-02-13T00:33:27.709Z,92.85
2017-02-13T00:34:27.726Z,92.57
2017-02-13T00:35:27.785Z,92.38
2017-02-13T00:36:27.785Z,93.13
2017-02-13T00:37:27.753Z,93.13
2017-02-13T00:38:27.758Z,93.23
2017-02-13T00:39:27.776Z,92.76
2017-02-13T00:40:42.299Z,93.13
2017-02-13T00:41:27.792Z,92.95
2017-02-13T00:42:27.812Z,93.51
2017-02-13T00:43:27.831Z,93.51
2017-02-13T00:44:27.837Z,93.61
2017-02-13T00:45:27.840Z,93.51
2017-02-13T00:46:27.906Z,93.04
2017-02-13T00:47:27.868Z,93.7
2017-02-13T00:48:27.882Z,93.89
2017-02-13T00:50:27.903Z,93.61
2017-02-13T00:51:27.903Z,93.51
2017-02-13T00:52:27.939Z,94.27
2017-02-13T00:53:27.935Z,93.99
2017-02-13T00:54:27.948Z,93.8
2017-02-13T00:55:42.470Z,93.89
2017-02-13T00:56:27.962Z,93.7
2017-02-13T00:57:27.972Z,93.8
2017-02-13T00:58:27.989Z,93.7
2017-02-13T00:59:27.605Z,93.7
2017-02-13T01:00:28.056Z,93.89
2017-02-13T01:01:28.028Z,93.89
2017-02-13T01:02:28.035Z,93.7
2017-02-13T01:03:28.042Z,94.18
2017-02-13T01:04:28.114Z,94.18
2017-02-13T01:05:28.329Z,93.61
2017-02-13T01:06:28.089Z,93.7
2017-02-13T01:07:28.101Z,93.61
2017-02-13T01:08:27.709Z,93.89
2017-02-13T01:09:28.118Z,93.8
2017-02-13T01:10:27.736Z,94.18
2017-02-13T01:11:28.132Z,94.18
2017-02-13T01:12:28.145Z,94.08
2017-02-13T01:13:28.152Z,94.51
2017-02-13T01:14:28.175Z,94.69
2017-02-13T01:16:28.198Z,94.84
2017-02-13T01:17:28.258Z,94.93
2017-02-13T01:18:28.217Z,94.65
2017-02-13T01:19:28.224Z,94.79
2017-02-13T01:20:28.240Z,95.03
2017-02-13T01:21:28.243Z,94.84
2017-02-13T01:22:28.265Z,94.93
2017-02-13T01:23:28.275Z,94.88
2017-02-13T01:24:28.275Z,94.98
2017-02-13T01:25:28.291Z,95.12
2017-02-13T01:26:28.316Z,95.03
2017-02-13T01:27:42.824Z,94.93
2017-02-13T01:28:28.326Z,95.03
2017-02-13T01:29:28.341Z,94.88
2017-02-13T01:30:28.351Z,94.74
2017-02-13T01:31:28.352Z,95.03
2017-02-13T01:32:28.361Z,95.31
2017-02-13T01:34:28.646Z,95.5
2017-02-13T01:35:28.408Z,94.84
2017-02-13T01:36:28.408Z,94.93
2017-02-13T01:37:28.417Z,95.03
2017-02-13T01:38:28.437Z,95.31
2017-02-13T01:39:28.446Z,94.98
2017-02-13T01:41:28.469Z,94.98
2017-02-13T01:42:28.473Z,95.4
2017-02-13T01:43:43.002Z,95.12
2017-02-13T01:44:28.504Z,95.31
2017-02-13T01:45:28.510Z,95.21
2017-02-13T01:46:28.519Z,95.5
2017-02-13T01:47:28.532Z,95.31
2017-02-13T01:48:28.843Z,95.17
2017-02-13T01:49:28.558Z,95.31
2017-02-13T01:50:28.565Z,95.45
2017-02-13T01:52:28.594Z,94.93
2017-02-13T01:53:28.609Z,95.31
2017-02-13T01:54:28.611Z,95.36
2017-02-13T01:55:28.631Z,95.31
2017-02-13T01:56:28.701Z,95.21
2017-02-13T01:57:28.646Z,94.98
2017-02-13T01:58:28.651Z,95.36
2017-02-13T01:59:43.344Z,94.98
2017-02-13T02:00:28.729Z,95.31
2017-02-13T02:01:28.706Z,95.31
2017-02-13T02:02:28.698Z,95.26
2017-02-13T02:03:28.707Z,95.26
2017-02-13T02:04:28.731Z,95.07
2017-02-13T02:05:28.734Z,95.17
2017-02-13T02:06:28.747Z,95.83
2017-02-13T02:07:28.748Z,95.83
2017-02-13T02:08:28.812Z,95.17
2017-02-13T02:09:28.822Z,95.64
2017-02-13T02:10:28.840Z,95.83
2017-02-13T02:11:28.797Z,95.45
2017-02-13T02:12:28.812Z,96.15
2017-02-13T02:13:28.825Z,95.45
2017-02-13T02:14:28.443Z,95.64
2017-02-13T02:15:43.356Z,95.45
2017-02-13T02:16:28.472Z,95.64
2017-02-13T02:18:28.870Z,96.01
2017-02-13T02:19:28.886Z,96.39
2017-02-13T02:20:28.900Z,95.64
2017-02-13T02:21:28.526Z,96.01
2017-02-13T02:22:28.920Z,95.92
2017-02-13T02:23:28.943Z,95.45
2017-02-13T02:24:28.553Z,95.45
2017-02-13T02:25:28.957Z,95.83
2017-02-13T02:26:28.966Z,95.64
2017-02-13T02:27:28.979Z,95.26
2017-02-13T02:29:28.998Z,95.92
2017-02-13T02:30:43.521Z,96.67
2017-02-13T02:31:29.019Z,95.83
2017-02-13T02:32:29.023Z,95.73
2017-02-13T02:33:29.039Z,95.54
2017-02-13T02:34:29.051Z,95.64
2017-02-13T02:35:29.068Z,95.73
2017-02-13T02:36:29.082Z,95.54
2017-02-13T02:37:29.081Z,95.64
2017-02-13T02:38:29.089Z,95.83
2017-02-13T02:39:29.102Z,95.73
2017-02-13T02:40:29.134Z,95.73
2017-02-13T02:41:29.124Z,95.73
2017-02-13T02:42:29.132Z,95.64
2017-02-13T02:43:29.152Z,95.54
2017-02-13T02:44:29.164Z,95.54
2017-02-13T02:45:29.181Z,95.83
2017-02-13T02:46:29.177Z,96.39
2017-02-13T02:47:29.192Z,95.64
2017-02-13T02:48:29.200Z,96.01
2017-02-13T02:49:29.221Z,96.2
2017-02-13T02:50:29.224Z,96.3
2017-02-13T02:51:29.241Z,96.48
2017-02-13T02:52:29.249Z,95.83
2017-02-13T02:53:29.270Z,95.54
2017-02-13T02:54:29.269Z,95.73
2017-02-13T02:55:29.284Z,95.83
2017-02-13T02:56:29.297Z,96.2
2017-02-13T02:57:29.303Z,96.11
2017-02-13T02:58:29.313Z,96.58
2017-02-13T02:59:29.331Z,96.11
2017-02-13T03:00:29.350Z,96.11
2017-02-13T03:01:29.337Z,96.39
2017-02-13T03:02:43.865Z,96.39
2017-02-13T03:03:29.361Z,96.58
2017-02-13T03:04:29.372Z,96.2
2017-02-13T03:05:29.412Z,96.2
2017-02-13T03:06:29.394Z,96.39
2017-02-13T03:07:29.413Z,96.2
2017-02-13T03:08:29.421Z,96.2
2017-02-13T03:09:29.422Z,96.39
2017-02-13T03:10:29.435Z,96.2
2017-02-13T03:13:29.465Z,96.2
2017-02-13T03:14:29.506Z,96.2
2017-02-13T03:15:29.488Z,96.3
2017-02-13T03:17:29.123Z,96.2
2017-02-13T03:18:44.037Z,96.39
2017-02-13T03:19:29.542Z,96.39
2017-02-13T03:20:29.543Z,96.3
2017-02-13T03:21:29.558Z,96.77
2017-02-13T03:22:29.592Z,96.11
2017-02-13T03:23:29.591Z,96.58
2017-02-13T03:24:29.590Z,96.39
2017-02-13T03:25:29.599Z,96.48
2017-02-13T03:26:29.607Z,96.2
2017-02-13T03:27:29.623Z,96.67
2017-02-13T03:28:29.653Z,96.58
2017-02-13T03:29:29.643Z,96.67
2017-02-13T03:30:29.650Z,96.58
2017-02-13T03:31:29.657Z,96.48
2017-02-13T03:32:29.674Z,96.67
2017-02-13T03:33:29.682Z,96.67
2017-02-13T03:34:44.207Z,96.2
2017-02-13T03:35:29.703Z,96.2
2017-02-13T03:36:29.730Z,96.67
2017-02-13T03:37:29.740Z,96.77
2017-02-13T03:38:29.735Z,97.05
2017-02-13T03:39:29.760Z,96.86
2017-02-13T03:40:29.759Z,97.05
2017-02-13T03:41:29.766Z,96.67
2017-02-13T03:42:29.781Z,96.67
2017-02-13T03:43:29.396Z,97.05
2017-02-13T03:44:29.800Z,97.14
2017-02-13T03:45:29.817Z,96.95
2017-02-13T03:46:29.433Z,96.95
2017-02-13T03:47:29.841Z,97.33
2017-02-13T03:48:29.461Z,97.05
2017-02-13T03:49:29.852Z,97.14
2017-02-13T03:50:44.379Z,97.05
2017-02-13T03:51:29.874Z,97.24
2017-02-13T03:52:29.890Z,97.05
2017-02-13T03:53:29.907Z,97.43
2017-02-13T03:54:29.907Z,97.33
2017-02-13T03:55:29.918Z,97.24
2017-02-13T03:56:29.934Z,97.33
2017-02-13T03:57:29.942Z,97.33
2017-02-13T03:58:29.954Z,97.05
2017-02-13T03:59:29.958Z,97.14
2017-02-13T04:00:29.974Z,97.61
2017-02-13T04:01:29.993Z,97.14
2017-02-13T04:02:29.998Z,97.52
2017-02-13T04:03:30.004Z,97.43
2017-02-13T04:04:30.021Z,97.14
2017-02-13T04:05:44.541Z,97.24
2017-02-13T04:06:30.034Z,97.14
2017-02-13T04:07:30.041Z,97.05
2017-02-13T04:08:30.066Z,97.05
2017-02-13T04:10:30.082Z,97.33
2017-02-13T04:12:30.107Z,97.05
2017-02-13T04:13:30.124Z,97.43
2017-02-13T04:14:30.115Z,97.43
2017-02-13T04:15:30.128Z,97.14
2017-02-13T04:16:30.148Z,97.24
2017-02-13T04:17:30.159Z,97.24
2017-02-13T04:18:30.165Z,97.43
2017-02-13T04:19:30.190Z,97.71
2017-02-13T04:20:30.191Z,97.43
2017-02-13T04:21:30.200Z,97.61
2017-02-13T04:22:30.203Z,97.8
2017-02-13T04:23:30.210Z,97.61
2017-02-13T04:24:30.233Z,97.52
2017-02-13T04:25:30.240Z,97.9
2017-02-13T04:26:30.252Z,97.9
2017-02-13T04:27:30.259Z,97.9
2017-02-13T04:28:30.273Z,97.9
2017-02-13T04:29:30.272Z,98.18
2017-02-13T04:30:30.283Z,98.09
2017-02-13T04:31:30.303Z,98.09
2017-02-13T04:32:30.318Z,97.99
2017-02-13T04:33:30.314Z,98.37
2017-02-13T04:35:30.357Z,98.28
2017-02-13T04:36:30.354Z,98.56
2017-02-13T04:37:44.879Z,98.28
2017-02-13T04:38:30.368Z,98.28
2017-02-13T04:41:30.410Z,98.28
2017-02-13T04:42:30.411Z,98.28
2017-02-13T04:43:30.429Z,98.09
2017-02-13T04:44:30.434Z,98.56
2017-02-13T04:45:30.459Z,98.37
2017-02-13T04:46:30.462Z,98.28
2017-02-13T04:47:30.472Z,98.37
2017-02-13T04:48:30.480Z,98.37
2017-02-13T04:49:30.485Z,98.75
2017-02-13T04:50:30.541Z,99.22
2017-02-13T04:51:30.526Z,99.22
2017-02-13T04:52:30.531Z,99.22
2017-02-13T04:53:45.046Z,98.75
2017-02-13T04:54:30.533Z,98.56
2017-02-13T04:55:30.555Z,99.13
2017-02-13T04:56:30.575Z,99.22
2017-02-13T04:57:30.571Z,98.94
2017-02-13T04:58:30.577Z,98.75
2017-02-13T04:59:30.587Z,98.75
2017-02-13T05:00:30.612Z,98.65
2017-02-13T05:01:30.619Z,98.56
2017-02-13T05:02:30.618Z,98.94
2017-02-13T05:03:30.637Z,99.13
2017-02-13T05:05:30.661Z,99.03
2017-02-13T05:06:30.682Z,98.75
2017-02-13T05:07:30.671Z,98.56
2017-02-13T05:08:30.684Z,98.75
2017-02-13T05:09:45.212Z,98.75
2017-02-13T05:10:30.706Z,98.75
2017-02-13T05:11:30.720Z,98.56
2017-02-13T05:12:30.729Z,98.47
2017-02-13T05:13:30.742Z,99.13
2017-02-13T05:15:30.761Z,98.37
2017-02-13T05:16:30.774Z,98.37
2017-02-13T05:17:30.779Z,98.37
2017-02-13T05:18:30.807Z,98.56
2017-02-13T05:19:30.796Z,98.47
2017-02-13T05:20:30.813Z,98.75
2017-02-13T05:21:30.827Z,99.22
2017-02-13T05:22:30.836Z,99.03
2017-02-13T05:23:30.838Z,99.13
2017-02-13T05:24:30.859Z,99.03
2017-02-13T05:25:45.379Z,98.94
2017-02-13T05:26:30.875Z,99.03
2017-02-13T05:27:30.882Z,99.13
2017-02-13T05:28:30.891Z,99.22
2017-02-13T05:29:30.908Z,98.75
2017-02-13T05:30:30.918Z,98.75
2017-02-13T05:31:30.922Z,98.75
2017-02-13T05:32:30.929Z,98.84
2017-02-13T05:33:30.958Z,98.84
2017-02-13T05:34:30.959Z,98.65
2017-02-13T05:35:30.970Z,99.13
2017-02-13T05:36:30.979Z,99.03
2017-02-13T05:37:30.993Z,99.03
2017-02-13T05:38:31.009Z,99.13
2017-02-13T05:39:31.012Z,98.75
2017-02-13T05:40:45.535Z,99.13
2017-02-13T05:41:31.025Z,98.56
2017-02-13T05:42:31.053Z,99.13
2017-02-13T05:43:31.058Z,98.94
2017-02-13T05:44:31.079Z,99.13
2017-02-13T05:45:31.076Z,98.94
2017-02-13T05:46:30.694Z,99.03
2017-02-13T05:47:31.089Z,99.13
2017-02-13T05:48:31.115Z,99.51
2017-02-13T05:49:31.116Z,98.65
2017-02-13T05:50:31.121Z,98.94
2017-02-13T05:52:31.151Z,99.13
2017-02-13T05:53:31.173Z,99.13
2017-02-13T05:54:31.175Z,99.13
2017-02-13T05:55:31.186Z,98.84
2017-02-13T05:56:31.190Z,99.22
2017-02-13T05:57:31.193Z,99.51
2017-02-13T05:58:31.212Z,99.51
2017-02-13T05:59:31.226Z,99.22
2017-02-13T06:00:31.223Z,99.26
2017-02-13T06:01:31.242Z,99.32
2017-02-13T06:02:31.244Z,99.41
2017-02-13T06:03:31.264Z,99.32
2017-02-13T06:05:31.276Z,99.32
2017-02-13T06:06:31.293Z,99.03
2017-02-13T06:07:31.306Z,99.13
2017-02-13T06:09:31.315Z,99.41
2017-02-13T06:10:31.335Z,99.79
2017-02-13T06:11:31.351Z,99.69
2017-02-13T06:12:45.866Z,99.79
2017-02-13T06:13:31.357Z,99.6
2017-02-13T06:14:31.371Z,99.51
2017-02-13T06:16:31.385Z,99.6
2017-02-13T06:17:31.400Z,99.79
2017-02-13T06:18:31.407Z,99.98
2017-02-13T06:19:31.427Z,99.51
2017-02-13T06:20:31.451Z,99.69
2017-02-13T06:21:31.449Z,99.79
2017-02-13T06:22:31.457Z,99.88
2017-02-13T06:23:31.468Z,99.6
2017-02-13T06:24:31.481Z,99.6
2017-02-13T06:25:31.485Z,99.79
2017-02-13T06:26:31.505Z,99.51
2017-02-13T06:27:31.499Z,99.74
2017-02-13T06:28:46.027Z,99.69
2017-02-13T06:29:31.526Z,99.64
2017-02-13T06:30:31.544Z,99.41
2017-02-13T06:31:31.550Z,99.64
2017-02-13T06:32:31.556Z,99.45
2017-02-13T06:33:31.574Z,99.45
2017-02-13T06:34:31.571Z,99.69
2017-02-13T06:35:31.590Z,99.6
2017-02-13T06:36:31.599Z,99.51
2017-02-13T06:37:31.602Z,99.45
2017-02-13T06:38:31.616Z,99.45
2017-02-13T06:39:31.625Z,99.99
2017-02-13T06:40:31.642Z,99.88
2017-02-13T06:41:31.653Z,99.98
2017-02-13T06:42:31.654Z,99.93
2017-02-13T06:43:31.665Z,99.99
2017-02-13T06:44:46.190Z,99.99
2017-02-13T06:45:31.694Z,99.93
2017-02-13T06:46:31.693Z,99.83
2017-02-13T06:47:31.704Z,99.83
2017-02-13T06:48:31.715Z,99.99
2017-02-13T06:49:31.752Z,99.99
2017-02-13T06:50:31.739Z,99.98
2017-02-13T06:51:31.761Z,99.99
2017-02-13T06:52:31.756Z,99.88
2017-02-13T06:53:31.777Z,99.98
2017-02-13T06:54:31.780Z,99.83
2017-02-13T06:55:31.794Z,99.79
2017-02-13T06:56:31.812Z,99.88
2017-02-13T06:57:31.820Z,99.98
2017-02-13T06:58:31.829Z,99.88
2017-02-13T06:59:31.845Z,99.51
2017-02-13T07:00:46.359Z,99.45
2017-02-13T07:01:31.852Z,99.32
2017-02-13T07:02:31.859Z,99.22
2017-02-13T07:03:31.877Z,99.69
2017-02-13T07:04:31.894Z,99.41
2017-02-13T07:05:31.907Z,99.79
2017-02-13T07:08:31.923Z,99.32
2017-02-13T07:09:31.942Z,98.94
2017-02-13T07:10:31.947Z,99.32
2017-02-13T07:11:31.958Z,99.13
2017-02-13T07:12:31.975Z,98.75
2017-02-13T07:13:32.033Z,99.13
2017-02-13T07:14:31.995Z,98.47
2017-02-13T07:15:46.517Z,99.13
2017-02-13T07:16:32.042Z,98.75
2017-02-13T07:17:32.025Z,98.65
2017-02-13T07:18:32.032Z,98.94
2017-02-13T07:19:32.041Z,98.75
2017-02-13T07:20:32.058Z,99.03
2017-02-13T07:21:32.079Z,99.22
2017-02-13T07:22:32.081Z,99.22
2017-02-13T07:23:32.118Z,98.37
2017-02-13T07:24:32.090Z,98.65
2017-02-13T07:25:32.102Z,97.99
2017-02-13T07:26:32.132Z,98.18
2017-02-13T07:27:32.134Z,98.18
2017-02-13T07:28:32.150Z,98.28
2017-02-13T07:29:32.146Z,97.99
2017-02-13T07:30:32.185Z,97.33
2017-02-13T07:31:32.182Z,97.43
2017-02-13T07:32:32.182Z,97.8
2017-02-13T07:33:32.197Z,97.52
2017-02-13T07:34:32.205Z,97.05
2017-02-13T07:35:32.220Z,97.33
2017-02-13T07:36:32.259Z,96.48
2017-02-13T07:37:32.252Z,96.48
2017-02-13T07:38:32.265Z,96.86
2017-02-13T07:39:32.277Z,96.11
2017-02-13T07:40:32.293Z,96.53
2017-02-13T07:41:32.291Z,95.78
2017-02-13T07:42:32.312Z,95.59
2017-02-13T07:43:32.327Z,95.78
2017-02-13T07:44:32.330Z,95.21
2017-02-13T07:45:32.344Z,95.78
2017-02-13T07:46:32.374Z,95.31
2017-02-13T07:47:46.891Z,95.5
2017-02-13T07:48:32.393Z,95.12
2017-02-13T07:49:32.405Z,95.12
2017-02-13T07:50:32.409Z,95.21
2017-02-13T07:51:32.424Z,94.93
2017-02-13T07:52:32.432Z,94.74
2017-02-13T07:53:32.447Z,94.65
2017-02-13T07:54:32.468Z,94.46
2017-02-13T07:55:32.480Z,94.65
2017-02-13T07:56:32.094Z,94.65
2017-02-13T07:57:32.502Z,93.99
2017-02-13T07:58:32.521Z,93.89
2017-02-13T07:59:32.523Z,93.7
2017-02-13T08:00:32.543Z,93.13
2017-02-13T08:01:32.547Z,93.23
2017-02-13T08:02:32.592Z,93.51
2017-02-13T08:03:47.093Z,92.66
2017-02-13T08:04:32.597Z,92.95
2017-02-13T08:05:32.609Z,92.76
2017-02-13T08:06:32.625Z,92.95
2017-02-13T08:07:32.236Z,92.19
2017-02-13T08:08:32.643Z,92.29
2017-02-13T08:09:32.654Z,92.1
2017-02-13T08:10:32.678Z,92.19
2017-02-13T08:11:32.680Z,91.82
2017-02-13T08:12:32.704Z,91.44
2017-02-13T08:13:32.704Z,91.91
2017-02-13T08:14:32.737Z,91.72
2017-02-13T08:15:32.734Z,91.91
2017-02-13T08:16:32.756Z,91.96
2017-02-13T08:17:32.781Z,91.39
2017-02-13T08:18:32.771Z,91.01
2017-02-13T08:19:47.303Z,90.97
2017-02-13T08:20:32.802Z,91.01
2017-02-13T08:21:32.818Z,90.92
2017-02-13T08:22:32.850Z,90.82
2017-02-13T08:23:32.835Z,90.64
2017-02-13T08:25:32.864Z,90.07
2017-02-13T08:26:32.894Z,90.92
2017-02-13T08:27:32.907Z,90.54
2017-02-13T08:28:32.913Z,89.88
2017-02-13T08:29:32.925Z,90.07
2017-02-13T08:31:32.952Z,90.07
2017-02-13T08:32:32.969Z,90.07
2017-02-13T08:33:32.976Z,89.78
2017-02-13T08:34:32.982Z,90.54
2017-02-13T08:35:47.515Z,89.59
2017-02-13T08:36:33.018Z,90.45
2017-02-13T08:37:33.040Z,89.78
2017-02-13T08:38:33.039Z,89.03
2017-02-13T08:39:33.049Z,89.4
2017-02-13T08:40:33.082Z,89.59
2017-02-13T08:41:33.074Z,88.75
2017-02-13T08:42:33.103Z,88.75
2017-02-13T08:43:33.127Z,89.12
2017-02-13T08:44:33.157Z,89.12
2017-02-13T08:45:33.127Z,89.03
2017-02-13T08:46:33.159Z,89.03
2017-02-13T08:47:33.178Z,89.22
2017-02-13T08:48:33.170Z,89.03
2017-02-13T08:49:33.194Z,88.93
2017-02-13T08:50:47.719Z,88.65
2017-02-13T08:51:33.212Z,88.65
2017-02-13T08:52:33.229Z,87.9
2017-02-13T08:53:33.240Z,87.99
2017-02-13T08:54:33.253Z,87.99
2017-02-13T08:55:33.282Z,87.62
2017-02-13T08:56:33.290Z,88.75
2017-02-13T08:57:33.298Z,88.46
2017-02-13T08:58:33.315Z,88.09
2017-02-13T08:59:33.341Z,87.71
2017-02-13T09:00:33.335Z,87.33
2017-02-13T09:01:33.355Z,86.86
2017-02-13T09:03:33.383Z,86.71
2017-02-13T09:04:33.387Z,86.71
2017-02-13T09:05:33.401Z,86.71
2017-02-13T09:06:33.440Z,86.05
2017-02-13T09:07:33.050Z,85.96
2017-02-13T09:08:33.512Z,85.86
2017-02-13T09:09:33.457Z,85.68
2017-02-13T09:10:33.474Z,85.86
2017-02-13T09:12:33.498Z,86.33
2017-02-13T09:13:33.514Z,86.05
2017-02-13T09:14:33.525Z,86.24
2017-02-13T09:15:33.574Z,85.96
2017-02-13T09:16:33.562Z,85.77
2017-02-13T09:18:33.597Z,85.11
2017-02-13T09:19:33.610Z,84.73
2017-02-13T09:21:33.632Z,85.3
2017-02-13T09:22:48.158Z,85.11
2017-02-13T09:23:33.664Z,85.01
2017-02-13T09:24:33.682Z,85.01
2017-02-13T09:25:33.699Z,84.73
2017-02-13T09:27:33.710Z,84.73
2017-02-13T09:28:33.727Z,84.64
2017-02-13T09:29:33.757Z,84.16
2017-02-13T09:30:33.763Z,84.16
2017-02-13T09:31:33.777Z,84.35
2017-02-13T09:32:33.780Z,83.97
2017-02-13T09:34:33.810Z,83.88
2017-02-13T09:35:33.833Z,83.88
2017-02-13T09:36:33.849Z,83.88
2017-02-13T09:37:33.861Z,83.03
2017-02-13T09:38:48.384Z,83.31
2017-02-13T09:39:33.881Z,83.12
2017-02-13T09:40:33.908Z,82.93
2017-02-13T09:41:33.918Z,83.12
2017-02-13T09:42:33.934Z,83.03
2017-02-13T09:43:33.944Z,83.97
2017-02-13T09:44:33.961Z,83.59
2017-02-13T09:45:33.578Z,84.16
2017-02-13T09:46:33.591Z,84.01
2017-02-13T09:47:34.000Z,83.26
2017-02-13T09:48:34.020Z,83.17
2017-02-13T09:49:34.031Z,83.36
2017-02-13T09:50:34.062Z,83.17
2017-02-13T09:51:33.672Z,82.88
2017-02-13T09:52:34.084Z,82.31
2017-02-13T09:53:34.082Z,82.5
2017-02-13T09:54:48.615Z,82.88
2017-02-13T09:55:34.110Z,83.07
2017-02-13T09:56:34.130Z,82.41
2017-02-13T09:57:34.140Z,82.31
2017-02-13T09:59:33.786Z,82.41
2017-02-13T10:00:34.186Z,82.5
2017-02-13T10:01:34.210Z,82.31
2017-02-13T10:02:34.216Z,82.12
2017-02-13T10:03:33.845Z,82.03
2017-02-13T10:04:34.243Z,82.22
2017-02-13T10:05:34.257Z,82.22
2017-02-13T10:06:34.291Z,81.18
2017-02-13T10:07:34.300Z,81.46
2017-02-13T10:08:34.314Z,81.27
2017-02-13T10:09:34.315Z,81.18
2017-02-13T10:10:48.853Z,81.37
2017-02-13T10:11:33.971Z,80.8
2017-02-13T10:12:34.369Z,80.52
2017-02-13T10:13:34.383Z,80.75
2017-02-13T10:14:34.020Z,80.14
2017-02-13T10:15:34.418Z,80.75
2017-02-13T10:16:34.431Z,80.46
2017-02-13T10:17:34.052Z,80.37
2017-02-13T10:18:34.064Z,80.43
2017-02-13T10:19:34.080Z,80.46
2017-02-13T10:20:34.109Z,80.37
2017-02-13T10:21:34.520Z,80.37
2017-02-13T10:22:34.133Z,80.46
2017-02-13T10:23:34.525Z,80.08
2017-02-13T10:24:34.539Z,80.18
2017-02-13T10:25:49.077Z,79.9
2017-02-13T10:26:34.574Z,80.27
2017-02-13T10:27:34.202Z,80.18
2017-02-13T10:28:34.211Z,80.18
2017-02-13T10:29:34.627Z,79.71
2017-02-13T10:30:34.246Z,79.43
2017-02-13T10:31:34.648Z,79.24
2017-02-13T10:32:34.279Z,79.24
2017-02-13T10:33:34.686Z,79.52
2017-02-13T10:35:34.716Z,79.33
2017-02-13T10:36:34.330Z,79.61
2017-02-13T10:37:34.353Z,79.76
2017-02-13T10:38:34.366Z,79.71
2017-02-13T10:39:34.783Z,79.52
2017-02-13T10:40:34.786Z,79.71
2017-02-13T10:41:34.796Z,79.24
2017-02-13T10:42:34.831Z,79.24
2017-02-13T10:43:34.841Z,79.43
2017-02-13T10:44:34.849Z,79.14
2017-02-13T10:45:34.858Z,79.71
2017-02-13T10:46:34.483Z,79.14
2017-02-13T10:47:34.893Z,79.33
2017-02-13T10:48:34.517Z,79.05
2017-02-13T10:49:34.923Z,78.95
2017-02-13T10:50:34.936Z,79.61
2017-02-13T10:51:34.951Z,78.86
2017-02-13T10:52:34.968Z,78.95
2017-02-13T10:53:34.981Z,78.95
2017-02-13T10:54:34.987Z,78.86
2017-02-13T10:55:34.616Z,78.86
2017-02-13T10:56:35.023Z,78.29
2017-02-13T10:57:49.546Z,78.29
2017-02-13T10:58:35.152Z,78.76
2017-02-13T10:59:35.067Z,78.95
2017-02-13T11:00:35.072Z,79.33
2017-02-13T11:01:35.090Z,79.24
2017-02-13T11:02:35.110Z,79.52
2017-02-13T11:03:34.742Z,79.33
2017-02-13T11:04:35.129Z,78.67
2017-02-13T11:05:35.145Z,78.95
2017-02-13T11:06:35.177Z,78.67
2017-02-13T11:07:35.180Z,78.01
2017-02-13T11:08:35.199Z,78.01
2017-02-13T11:09:35.213Z,77.82
2017-02-13T11:10:35.217Z,77.95
2017-02-13T11:11:35.235Z,77.76
2017-02-13T11:12:35.250Z,77.86
2017-02-13T11:13:49.778Z,77.29
2017-02-13T11:14:35.283Z,77.39
2017-02-13T11:15:35.304Z,77.1
2017-02-13T11:16:35.303Z,77.29
2017-02-13T11:17:35.335Z,77.1
2017-02-13T11:18:35.342Z,77.29
2017-02-13T11:19:35.362Z,77.29
2017-02-13T11:20:35.381Z,77.1
2017-02-13T11:22:35.398Z,76.82
2017-02-13T11:23:35.419Z,77.01
2017-02-13T11:24:35.421Z,76.91
2017-02-13T11:25:35.442Z,76.15
2017-02-13T11:26:35.455Z,77.29
2017-02-13T11:27:35.473Z,76.82
2017-02-13T11:28:35.476Z,77.1
2017-02-13T11:29:50.010Z,77.2
2017-02-13T11:30:35.523Z,77.1
2017-02-13T11:31:35.538Z,76.72
2017-02-13T11:32:35.559Z,75.87
2017-02-13T11:34:35.572Z,76.44
2017-02-13T11:35:35.592Z,76.34
2017-02-13T11:36:35.603Z,75.78
2017-02-13T11:37:35.609Z,75.59
2017-02-13T11:38:35.637Z,75.87
2017-02-13T11:39:35.646Z,76.15
2017-02-13T11:40:35.661Z,75.49
2017-02-13T11:41:35.677Z,75.59
2017-02-13T11:42:35.689Z,75.49
2017-02-13T11:43:35.697Z,75.49
2017-02-13T11:44:35.727Z,75.59
2017-02-13T11:45:50.246Z,75.68
2017-02-13T11:46:35.752Z,75.4
2017-02-13T11:48:35.785Z,75.02
2017-02-13T11:49:35.783Z,75.31
2017-02-13T11:51:35.813Z,75.02
2017-02-13T11:52:35.829Z,75.02
2017-02-13T11:53:35.854Z,75.31
2017-02-13T11:54:35.860Z,75.49
2017-02-13T11:55:35.878Z,75.31
2017-02-13T11:56:35.901Z,75.59
2017-02-13T11:57:35.918Z,75.02
2017-02-13T11:58:35.917Z,75.02
2017-02-13T11:59:35.951Z,75.31
2017-02-13T12:00:50.467Z,75.4
2017-02-13T12:01:35.971Z,75.12
2017-02-13T12:02:35.978Z,74.45
2017-02-13T12:03:36.001Z,74.83
2017-02-13T12:04:36.017Z,74.64
2017-02-13T12:05:36.028Z,75.31
2017-02-13T12:06:36.043Z,74.68
2017-02-13T12:07:36.064Z,74.4
2017-02-13T12:08:36.126Z,74.58
2017-02-13T12:09:36.088Z,74.4
2017-02-13T12:10:36.101Z,74.55
2017-02-13T12:11:36.119Z,74.77
2017-02-13T12:12:36.133Z,74.96
2017-02-13T12:13:36.150Z,74.96
2017-02-13T12:14:36.152Z,74.21
2017-02-13T12:15:36.169Z,74.49
2017-02-13T12:16:36.192Z,74.4
2017-02-13T12:17:36.220Z,73.92
2017-02-13T12:19:36.227Z,74.3
2017-02-13T12:20:36.268Z,74.11
2017-02-13T12:21:36.257Z,74.21
2017-02-13T12:22:36.271Z,73.92
2017-02-13T12:23:36.294Z,73.83
2017-02-13T12:24:36.301Z,74.21
2017-02-13T12:25:36.329Z,74.4
2017-02-13T12:27:36.349Z,73.54
2017-02-13T12:28:36.361Z,72.78
2017-02-13T12:29:36.382Z,73.45
2017-02-13T12:30:36.399Z,73.83
2017-02-13T12:31:36.412Z,73.73
2017-02-13T12:32:50.940Z,73.07
2017-02-13T12:33:36.486Z,73.45
2017-02-13T12:34:36.461Z,73.64
2017-02-13T12:35:36.487Z,73.45
2017-02-13T12:36:36.498Z,73.07
2017-02-13T12:37:36.495Z,73.26
2017-02-13T12:38:36.546Z,73.07
2017-02-13T12:39:36.528Z,72.88
2017-02-13T12:40:36.540Z,72.88
2017-02-13T12:41:36.576Z,72.97
2017-02-13T12:42:36.579Z,73.16
2017-02-13T12:43:36.596Z,73.3
2017-02-13T12:45:34.286Z,72.78
2017-02-13T12:45:44.949Z,73.11
2017-02-13T12:46:44.950Z,73.35
2017-02-13T12:47:44.961Z,72.92
2017-02-13T12:48:44.982Z,72.82
2017-02-13T12:49:44.999Z,72.44
2017-02-13T12:50:45.017Z,73.01
2017-02-13T12:52:45.053Z,72.82
2017-02-13T12:53:44.668Z,72.34
2017-02-13T12:54:45.084Z,71.69
2017-02-13T12:55:45.102Z,71.69
2017-02-13T12:56:45.106Z,71.74
2017-02-13T12:57:45.123Z,72.63
2017-02-13T12:58:45.130Z,72.06
2017-02-13T12:59:45.150Z,72.25
2017-02-13T13:00:45.198Z,72.63
2017-02-13T13:01:45.174Z,72.16
2017-02-13T13:03:45.211Z,72.25
2017-02-13T13:04:45.221Z,72.34
2017-02-13T13:05:45.245Z,71.84
2017-02-13T13:06:45.257Z,72.22
2017-02-13T13:07:45.276Z,72.22
2017-02-13T13:08:45.288Z,72.88
2017-02-13T13:09:45.308Z,72.88
2017-02-13T13:11:45.333Z,73.26
2017-02-13T13:12:45.346Z,73.35
2017-02-13T13:13:59.875Z,72.97
2017-02-13T13:14:45.384Z,73.07
2017-02-13T13:15:45.389Z,73.16
2017-02-13T13:16:45.413Z,72.97
2017-02-13T13:17:45.419Z,72.78
2017-02-13T13:19:45.475Z,73.35
2017-02-13T13:20:45.471Z,72.88
2017-02-13T13:21:45.487Z,73.16
2017-02-13T13:22:45.504Z,73.83
2017-02-13T13:24:45.522Z,73.07
2017-02-13T13:25:45.554Z,72.88
2017-02-13T13:26:45.559Z,73.16
2017-02-13T13:28:45.583Z,73.26
2017-02-13T13:30:00.120Z,73.73
2017-02-13T13:30:45.615Z,73.35
2017-02-13T13:32:45.649Z,73.54
2017-02-13T13:33:45.668Z,73.83
2017-02-13T13:34:45.693Z,73.64
2017-02-13T13:35:45.716Z,73.83
2017-02-13T13:36:45.724Z,73.35
2017-02-13T13:37:45.737Z,73.64
2017-02-13T13:38:45.732Z,73.64
2017-02-13T13:40:45.786Z,73.92
2017-02-13T13:41:45.398Z,73.83
2017-02-13T13:42:45.796Z,73.54
2017-02-13T13:43:45.819Z,73.54